Kakariki — ZMKA — position and weather

sailwx.info

Track history (hours):
 
Tides and Currents Weather Stations Pressure Air Temp Water Temp Dewpoint Dewpoint Depression Visibility Wind Speed Wind Dir Waves Ship Positions

Kakariki

Last reported at 2017-Mar-28 12:00 UTC. Time now 2017-Mar-28 19:35 UTC.
Position S 38°30' E 178°30'.

Length 183 m; beam 32 m; draft 11 m.

Type: Ship (hazmat cat A). MMSI: 512000050.

Wind from 100 at 22 knots

Barometer 1012.5 mb
Air temperature 20.1 ° C
Visibility: greater than 5.4 NM
Dewpoint 19.9 ° C

Date/timePositionNaut miles runAvg speedWind from/ knotsBaromVisibWave heightAir tempDewpointWater temp
2017-Mar-28 12:00S 38°30' E 178°30'15913.2 100 / 221012.5 5.4 20.119.9
2017-Mar-28 00:00S 40°42' E 176°36'15713.1 230 / 151015.210.8 16.515.8
2017-Mar-27 12:00S 42°36' E 174°12'90 1.9 210 / 181016.5 5.4 13.413.4
2017-Mar-25 12:00S 41°36' E 175°42'243 7.1 080 / 181020.4 5.4 14.513.8
2017-Mar-24 01:34S 37°34' E 176°13'6 6.4
2017-Mar-24 00:33S 37°40' E 176°11'1 0.0
2017-Mar-23 10:33S 37°39' E 176°11'5 5.3
2017-Mar-23 09:33S 37°35' E 176°15'2 1.9
2017-Mar-23 08:31S 37°37' E 176°14'0 0.1
2017-Mar-23 07:33S 37°37' E 176°14'0 0.0
2017-Mar-23 06:30S 37°37' E 176°14'0 0.0
2017-Mar-23 05:32S 37°37' E 176°14'0 0.0
2017-Mar-23 04:32S 37°37' E 176°14'0 0.0
2017-Mar-23 03:32S 37°37' E 176°14'0 0.0
2017-Mar-23 02:31S 37°37' E 176°14'0 0.1
2017-Mar-23 01:31S 37°37' E 176°14'0 0.1
2017-Mar-23 00:33S 37°37' E 176°14'0 0.0
2017-Mar-22 23:33S 37°37' E 176°14'0 0.0
2017-Mar-22 22:32S 37°37' E 176°14'0 0.0
2017-Mar-22 21:32S 37°37' E 176°14'0 0.0
2017-Mar-22 20:32S 37°37' E 176°14'0 0.0
2017-Mar-22 19:31S 37°37' E 176°14'0 0.0
2017-Mar-22 18:31S 37°37' E 176°14'0 0.0
2017-Mar-22 17:33S 37°37' E 176°14'0 0.0
2017-Mar-22 16:33S 37°37' E 176°14'0 0.0
2017-Mar-22 15:32S 37°37' E 176°14'0 0.0
2017-Mar-22 14:32S 37°37' E 176°14'0 0.0
2017-Mar-22 13:31S 37°37' E 176°14'0 0.0
2017-Mar-22 12:31S 37°37' E 176°14'0 0.0
2017-Mar-22 11:31S 37°37' E 176°14'0 0.0
2017-Mar-22 10:33S 37°37' E 176°14'0 0.0
2017-Mar-22 09:33S 37°37' E 176°14'0 0.0
2017-Mar-22 08:32S 37°37' E 176°14'0 0.0
2017-Mar-22 07:32S 37°37' E 176°14'0 0.0
2017-Mar-22 06:31S 37°37' E 176°14'0 0.0
2017-Mar-22 05:31S 37°37' E 176°14'0 0.0
2017-Mar-22 04:31S 37°37' E 176°14'0 0.0
2017-Mar-22 03:33S 37°37' E 176°14'0 0.0
2017-Mar-22 02:33S 37°37' E 176°14'0 0.0
2017-Mar-22 01:32S 37°37' E 176°14'0 0.0
2017-Mar-22 00:32S 37°37' E 176°14'0 0.0
2017-Mar-21 23:31S 37°37' E 176°14'0 0.0
2017-Mar-21 22:33S 37°37' E 176°14'6 6.4
2017-Mar-21 21:33S 37°31' E 176°12'7910.6
2017-Mar-21 14:10S 36°14' E 175°48'911.4
2017-Mar-21 13:22S 36°07' E 175°41'1211.3
2017-Mar-21 12:19S 35°58' E 175°32'911.4
2017-Mar-21 11:33S 35°52' E 175°24'  
Track history (hours):
 
Tides and Currents Weather Stations Pressure Air Temp Water Temp Dewpoint Dewpoint Depression Visibility Wind Speed Wind Dir Waves Ship Positions

Kakariki

Last reported at 2017-Mar-28 12:00 UTC. Time now 2017-Mar-28 19:35 UTC.
Position S 38°30' E 178°30'.

Length 183 m; beam 32 m; draft 11 m.

Type: Ship (hazmat cat A). MMSI: 512000050.

Wind from 100 at 22 knots

Barometer 1012.5 mb
Air temperature 20.1 ° C
Visibility: greater than 5.4 NM
Dewpoint 19.9 ° C

Date/timePositionNaut miles runAvg speedWind from/ knotsBaromVisibWave heightAir tempDewpointWater temp
2017-Mar-28 12:00S 38°30' E 178°30'15913.2 100 / 221012.5 5.4 20.119.9
2017-Mar-28 00:00S 40°42' E 176°36'15713.1 230 / 151015.210.8 16.515.8
2017-Mar-27 12:00S 42°36' E 174°12'90 1.9 210 / 181016.5 5.4 13.413.4
2017-Mar-25 12:00S 41°36' E 175°42'243 7.1 080 / 181020.4 5.4 14.513.8
2017-Mar-24 01:34S 37°34' E 176°13'6 6.4
2017-Mar-24 00:33S 37°40' E 176°11'1 0.0
2017-Mar-23 10:33S 37°39' E 176°11'5 5.3
2017-Mar-23 09:33S 37°35' E 176°15'2 1.9
2017-Mar-23 08:31S 37°37' E 176°14'0 0.1
2017-Mar-23 07:33S 37°37' E 176°14'0 0.0
2017-Mar-23 06:30S 37°37' E 176°14'0 0.0
2017-Mar-23 05:32S 37°37' E 176°14'0 0.0
2017-Mar-23 04:32S 37°37' E 176°14'0 0.0
2017-Mar-23 03:32S 37°37' E 176°14'0 0.0
2017-Mar-23 02:31S 37°37' E 176°14'0 0.1
2017-Mar-23 01:31S 37°37' E 176°14'0 0.1
2017-Mar-23 00:33S 37°37' E 176°14'0 0.0
2017-Mar-22 23:33S 37°37' E 176°14'0 0.0
2017-Mar-22 22:32S 37°37' E 176°14'0 0.0
2017-Mar-22 21:32S 37°37' E 176°14'0 0.0
2017-Mar-22 20:32S 37°37' E 176°14'0 0.0
2017-Mar-22 19:31S 37°37' E 176°14'0 0.0
2017-Mar-22 18:31S 37°37' E 176°14'0 0.0
2017-Mar-22 17:33S 37°37' E 176°14'0 0.0
2017-Mar-22 16:33S 37°37' E 176°14'0 0.0
2017-Mar-22 15:32S 37°37' E 176°14'0 0.0
2017-Mar-22 14:32S 37°37' E 176°14'0 0.0
2017-Mar-22 13:31S 37°37' E 176°14'0 0.0
2017-Mar-22 12:31S 37°37' E 176°14'0 0.0
2017-Mar-22 11:31S 37°37' E 176°14'0 0.0
2017-Mar-22 10:33S 37°37' E 176°14'0 0.0
2017-Mar-22 09:33S 37°37' E 176°14'0 0.0
2017-Mar-22 08:32S 37°37' E 176°14'0 0.0
2017-Mar-22 07:32S 37°37' E 176°14'0 0.0
2017-Mar-22 06:31S 37°37' E 176°14'0 0.0
2017-Mar-22 05:31S 37°37' E 176°14'0 0.0
2017-Mar-22 04:31S 37°37' E 176°14'0 0.0
2017-Mar-22 03:33S 37°37' E 176°14'0 0.0
2017-Mar-22 02:33S 37°37' E 176°14'0 0.0
2017-Mar-22 01:32S 37°37' E 176°14'0 0.0
2017-Mar-22 00:32S 37°37' E 176°14'0 0.0
2017-Mar-21 23:31S 37°37' E 176°14'0 0.0
2017-Mar-21 22:33S 37°37' E 176°14'6 6.4
2017-Mar-21 21:33S 37°31' E 176°12'7910.6
2017-Mar-21 14:10S 36°14' E 175°48'911.4
2017-Mar-21 13:22S 36°07' E 175°41'1211.3
2017-Mar-21 12:19S 35°58' E 175°32'911.4
2017-Mar-21 11:33S 35°52' E 175°24'  

Dump ship's entire track history